Preview of NWS' New Version of Forecast
This preview is not operational and should not be used for support decisions.

Terminal Aerodrome Forecast (TAF)

Issued by National Weather Service (NWS)

                            
000
FTUS45 KBOI 190520
TAFMYL
TAF
KMYL 190520Z 1906/2006 VRB03KT P6SM SKC
     FM192000 20010G17KT P6SM SKC
     FM200200 VRB04KT P6SM SKC=